Portland, Oregon
Traffic Map
Current Weather Conditions
Portland, Oregon
Broken Clouds
Broken Clouds
58°
Feels Like: 58°
Wind Chill: 58° Ceiling: 5500
Heat Index: 58° Visibility: 10mi
Dew Point: 44° Wind: 6mph
Humidity: 60% Direction: 330° (NNW)
Pressure: 30.2in Gusts: 0mph
Raw Report DataKPDX 270353Z 33005KT 10SM BKN055 BKN250 14/07 A3020 RMK AO2 SLP224 T01440067
Traffic Incident Summary
Active as of:
Severity:
Category:
InformationThere was an issue retrieving the traffic information for this location. Please try a different location or try again shortly.
Advertisements
Track Severe Weather on mobile